Etusivu
METAR-TAF:

METAR-TAF

Lentoasemat :

Oelwein Municipal Airport

Oelwein, Iowa, Yhdysvallat

Leveyspiiri: 42-40-51N, Pituuspiiri: 091-58-28W, korkeus merenpinnasta: 328 m

Tämänhetkinen sää

Tämä raportti tehtiin 21 minuuttia sitten, kello 07.15 UTC
Tuuli 5 kn etelästä
Lämpötila 22°C
Kosteus 94%
Ilmanpaine 1016 hPa
Näkyvyys: 16.1 km
selkeää

METAR: KOLZ 090715Z AUTO 17005KT 10SM CLR 22/21 A3000 RMK A01

Aika: 02:36 (07:36 UTC)


TAF: puuttuu

Säähavainnot ja -ennusteet yli 4000 lentoasemalta (METAR- ja TAF-raportit).

Käytössä olevat sääasemat on merkitty karttaan keltaisilla ja punaisilla pisteillä.

Aseta hiiri pisteen päälle nähdäksesi sääaseman nimen.

Klikkaa sitten nähdäksesi säähavainnot ja -ennusteet.

Kartan vaihtaminen: klikkaa mustalla rastilla varustettuja vihreitä pisteitä, niin voit zoomata sisään; viivalla varustettua vihreää pistettä, niin voit zoomata ulos tai vihreitä nuolia, niin pääset viereisille kartoille.


METAR-TAF: